Terminal Aerodrome Forecast
Issued by NWS Blacksburg, VA

Current Version | Previous Version | Text Only | Print | Product List | Glossary Off
Versions: 1 2 3 4 5 6 7 8 9 10 11 12 13 14 15 16 17 18 19 20 21 22 23 24

000
FTUS41 KRNK 182321
TAFBLF
TAF
KBLF 182321Z 1900/1924 26004KT P6SM OVC060
      TEMPO 1900/1904 6SM -SHRA OVC040
     FM190400 27006KT P6SM VCSH OVC015
      TEMPO 1904/1906 4SM -SHRA BR OVC007
     FM191100 29006KT P6SM OVC008
     FM191300 28009KT P6SM OVC003
     FM191500 29009G17KT P6SM BKN010
     FM192000 30009KT P6SM SCT020=

USA.gov is the U.S. government's official web portal to all federal, state and local government web resources and services.